Time;durP1;ratioP1;P1;durP2;ratioP2;P2;SDS_P1;SDS_P2;PMS_P1;PMS_P2;Temp;Humidity;BMP_temperature;BMP_pressure;BME280_temperature;BME280_humidity;BME280_pressure;Samples;Min_cycle;Max_cycle;Signal;HPM_P1;HPM_P2
2022/01/27 00:04:14;;;;;;;70.72;44.05;;;5.00;99.90;;;;;;5091652;28;20109;-72
2022/01/27 00:06:41;;;;;;;65.57;43.13;;;5.00;99.90;;;;;;5064847;28;20036;-71
2022/01/27 00:09:22;;;;;;;70.17;43.93;;;5.00;99.90;;;;;;5093277;28;20044;-71
2022/01/27 00:11:48;;;;;;;66.95;43.80;;;5.00;99.90;;;;;;5054879;28;20068;-71
2022/01/27 00:14:17;;;;;;;65.25;44.00;;;5.00;99.90;;;;;;5060229;28;20075;-71
2022/01/27 00:16:52;;;;;;;64.10;41.58;;;5.00;99.90;;;;;;5060532;28;20080;-71
2022/01/27 00:19:18;;;;;;;67.20;41.78;;;5.00;99.90;;;;;;5059855;28;20057;-71
2022/01/27 00:21:44;;;;;;;67.28;43.35;;;5.00;99.90;;;;;;5068699;28;20373;-71
2022/01/27 00:24:09;;;;;;;64.30;41.80;;;5.10;99.90;;;;;;5061121;28;20395;-71
2022/01/27 00:26:35;;;;;;;59.58;41.00;;;5.10;99.90;;;;;;5079326;28;20044;-71
2022/01/27 00:29:00;;;;;;;61.65;40.70;;;5.00;99.90;;;;;;5062700;28;20148;-71
2022/01/27 00:31:26;;;;;;;58.22;39.78;;;5.10;99.90;;;;;;5068858;28;20454;-71
2022/01/27 00:33:53;;;;;;;63.33;42.03;;;5.00;99.90;;;;;;5060458;28;20055;-72
2022/01/27 00:36:19;;;;;;;57.50;40.95;;;5.10;99.90;;;;;;5081862;28;20066;-72
2022/01/27 00:38:45;;;;;;;59.60;40.65;;;5.10;99.90;;;;;;5063976;28;20037;-72
2022/01/27 00:41:13;;;;;;;62.58;40.63;;;5.10;99.90;;;;;;5055046;28;20079;-72
2022/01/27 00:43:39;;;;;;;60.17;42.38;;;5.10;99.90;;;;;;5062047;28;20492;-72
2022/01/27 00:46:10;;;;;;;60.45;40.42;;;5.10;99.90;;;;;;5070846;28;20052;-71
2022/01/27 00:48:36;;;;;;;56.90;40.15;;;5.10;99.90;;;;;;5065336;28;20123;-72
2022/01/27 00:51:04;;;;;;;58.55;40.20;;;5.10;99.90;;;;;;5063347;28;20123;-71
2022/01/27 00:56:00;;;;;;;56.30;41.33;;;5.20;99.90;;;;;;5065072;28;20047;-72
2022/01/27 01:01:29;;;;;;;56.25;40.72;;;5.10;99.90;;;;;;5042701;28;20045;-71
2022/01/27 01:03:59;;;;;;;56.40;41.40;;;5.20;99.90;;;;;;5067842;28;20048;-72
2022/01/27 01:19:07;;;;;;;58.67;40.60;;;5.20;99.90;;;;;;5066672;28;20046;-71
2022/01/27 01:34:32;;;;;;;53.10;39.47;;;5.20;99.90;;;;;;5060639;28;20056;-71
2022/01/27 01:37:02;;;;;;;58.92;40.05;;;5.10;99.90;;;;;;5053421;28;20503;-71
2022/01/27 01:39:30;;;;;;;58.85;39.60;;;5.20;99.90;;;;;;5066545;28;20056;-71
2022/01/27 01:41:57;;;;;;;53.60;39.13;;;5.10;99.90;;;;;;5066530;28;20090;-71
2022/01/27 01:44:23;;;;;;;57.63;39.20;;;5.20;99.90;;;;;;5095974;28;20052;-71
2022/01/27 01:46:49;;;;;;;53.47;39.42;;;5.20;99.90;;;;;;5067670;28;20032;-71
2022/01/27 01:49:15;;;;;;;54.45;39.30;;;5.10;99.90;;;;;;5065356;28;20036;-72
2022/01/27 01:51:43;;;;;;;56.30;39.25;;;5.20;99.90;;;;;;5076150;28;20111;-72
2022/01/27 01:54:09;;;;;;;54.25;38.83;;;5.20;99.90;;;;;;5063703;28;20063;-72
2022/01/27 01:56:37;;;;;;;55.42;38.88;;;5.10;99.90;;;;;;5060637;28;20479;-71
2022/01/27 01:59:05;;;;;;;;;;;5.20;99.90;;;;;;5066918;28;20040;-71
2022/01/27 02:01:32;;;;;;;53.47;39.10;;;5.10;99.90;;;;;;5064759;28;20415;-71
2022/01/27 02:04:02;;;;;;;52.55;39.05;;;5.10;99.90;;;;;;5062082;28;20725;-71
2022/01/27 02:06:42;;;;;;;54.38;38.50;;;5.10;99.90;;;;;;5101101;28;20087;-71
2022/01/27 02:09:23;;;;;;;52.58;38.25;;;5.20;99.90;;;;;;5065544;28;20063;-71
2022/01/27 02:20:07;;;;;;;55.60;37.58;;;5.20;99.90;;;;;;5065378;28;20049;-71
2022/01/27 02:22:33;;;;;;;51.13;38.03;;;5.20;99.90;;;;;;5068083;28;20044;-71
2022/01/27 02:24:59;;;;;;;55.08;38.03;;;5.20;99.90;;;;;;5065928;28;20036;-71
2022/01/27 02:27:24;;;;;;;53.05;39.10;;;5.20;99.90;;;;;;5065187;28;20048;-71
2022/01/27 02:29:50;;;;;;;51.10;39.08;;;5.20;99.90;;;;;;5062879;28;20055;-71
2022/01/27 02:32:18;;;;;;;54.53;39.88;;;5.20;99.90;;;;;;5061528;28;20045;-71
2022/01/27 02:34:43;;;;;;;55.63;37.03;;;5.20;99.90;;;;;;5060867;28;20050;-71
2022/01/27 02:37:10;;;;;;;52.67;37.92;;;5.20;99.90;;;;;;5080955;28;20033;-71
2022/01/27 02:39:37;;;;;;;52.97;38.42;;;5.20;99.90;;;;;;5098482;28;20483;-71
2022/01/27 02:42:11;;;;;;;53.30;38.63;;;5.20;99.90;;;;;;5062967;28;20050;-71
2022/01/27 02:44:46;;;;;;;50.40;38.70;;;5.20;99.90;;;;;;5066336;28;20073;-71
2022/01/27 02:47:16;;;;;;;53.08;38.58;;;5.20;99.90;;;;;;5062186;28;20476;-71
2022/01/27 02:49:42;;;;;;;52.83;38.30;;;5.30;99.90;;;;;;5063532;28;20126;-72
2022/01/27 02:52:09;;;;;;;55.20;38.50;;;5.30;99.90;;;;;;5056861;28;20037;-71
2022/01/27 02:54:35;;;;;;;52.95;37.13;;;5.20;99.90;;;;;;5071879;28;20403;-71
2022/01/27 02:57:01;;;;;;;54.63;37.60;;;5.30;99.90;;;;;;5059722;28;20119;-71
2022/01/27 02:59:27;;;;;;;50.92;36.42;;;5.30;99.90;;;;;;5061369;28;20165;-71
2022/01/27 03:01:52;;;;;;;49.95;36.30;;;5.30;99.90;;;;;;5067969;28;20496;-72
2022/01/27 03:04:19;;;;;;;51.50;36.00;;;5.30;99.90;;;;;;5066220;28;20056;-71
2022/01/27 03:06:46;;;;;;;48.53;36.42;;;5.30;99.90;;;;;;5064321;28;20074;-72
2022/01/27 03:09:13;;;;;;;46.83;35.33;;;5.30;99.90;;;;;;5096468;28;20438;-71
2022/01/27 03:11:38;;;;;;;48.63;36.83;;;5.30;99.90;;;;;;5063505;28;20048;-71
2022/01/27 03:14:05;;;;;;;50.83;36.25;;;5.30;99.90;;;;;;5057453;28;20677;-71
2022/01/27 03:16:31;;;;;;;46.60;34.45;;;5.30;99.90;;;;;;5063112;28;20052;-72
2022/01/27 03:18:56;;;;;;;48.90;35.42;;;5.30;99.90;;;;;;5059901;28;20060;-71
2022/01/27 03:21:22;;;;;;;47.95;34.58;;;5.30;99.90;;;;;;5068262;28;20047;-71
2022/01/27 03:23:47;;;;;;;49.90;36.45;;;5.30;99.90;;;;;;5067545;28;20037;-72
2022/01/27 03:26:13;;;;;;;48.95;33.53;;;5.30;99.90;;;;;;5067251;28;20487;-72
2022/01/27 03:28:39;;;;;;;45.10;33.20;;;5.40;99.90;;;;;;5074781;28;20041;-72
2022/01/27 03:31:04;;;;;;;46.55;33.85;;;5.40;99.90;;;;;;5063509;28;20037;-71
2022/01/27 03:33:30;;;;;;;43.42;33.60;;;5.40;99.90;;;;;;5064215;28;20055;-71
2022/01/27 03:35:56;;;;;;;51.35;35.15;;;5.40;99.90;;;;;;5057301;28;20047;-71
2022/01/27 03:38:22;;;;;;;45.60;32.67;;;5.40;99.90;;;;;;5061636;28;20051;-71
2022/01/27 03:40:47;;;;;;;48.63;33.97;;;5.40;99.90;;;;;;5055772;28;20430;-71
2022/01/27 03:43:13;;;;;;;47.00;33.85;;;5.40;99.90;;;;;;5064992;28;20045;-71
2022/01/27 03:45:39;;;;;;;50.78;34.70;;;5.40;99.90;;;;;;5064414;28;20095;-71
2022/01/27 03:48:05;;;;;;;48.63;33.70;;;5.40;99.90;;;;;;5063440;28;20040;-71
2022/01/27 03:50:32;;;;;;;51.17;33.75;;;5.40;99.90;;;;;;5063095;28;20032;-72
2022/01/27 03:52:57;;;;;;;43.85;32.65;;;5.40;99.90;;;;;;5067648;28;20051;-71
2022/01/27 03:55:23;;;;;;;48.25;33.55;;;5.40;99.90;;;;;;5059195;28;20044;-71
2022/01/27 03:57:49;;;;;;;46.92;33.65;;;5.40;99.90;;;;;;5064573;28;20048;-71
2022/01/27 04:00:15;;;;;;;45.83;34.20;;;5.40;99.90;;;;;;5066083;28;20068;-71
2022/01/27 04:02:53;;;;;;;45.47;33.90;;;5.50;99.90;;;;;;5066730;28;20123;-71
2022/01/27 04:05:19;;;;;;;49.80;34.78;;;5.50;99.90;;;;;;5057491;28;20062;-71
2022/01/27 04:07:46;;;;;;;48.85;33.58;;;5.50;99.90;;;;;;5069315;28;20049;-72
2022/01/27 04:10:12;;;;;;;53.30;36.15;;;5.50;99.90;;;;;;5064126;28;20125;-71
2022/01/27 04:12:37;;;;;;;50.80;34.25;;;5.40;99.90;;;;;;5077306;28;20049;-71
2022/01/27 04:15:04;;;;;;;50.38;34.67;;;5.40;99.90;;;;;;5062353;28;20554;-71
2022/01/27 04:17:30;;;;;;;51.92;35.05;;;5.40;99.90;;;;;;5064506;28;20499;-71
2022/01/27 04:19:56;;;;;;;53.83;36.08;;;5.40;99.90;;;;;;5067700;28;20051;-71
2022/01/27 04:22:21;;;;;;;53.25;35.47;;;5.40;99.90;;;;;;5069592;28;20047;-71
2022/01/27 04:24:47;;;;;;;53.00;35.38;;;5.40;99.90;;;;;;5066533;28;20400;-71
2022/01/27 04:27:18;;;;;;;48.42;33.78;;;5.40;99.90;;;;;;5068450;28;20124;-71
2022/01/27 04:29:45;;;;;;;45.60;34.15;;;5.40;99.90;;;;;;5062415;28;20048;-72
2022/01/27 04:32:12;;;;;;;50.75;34.70;;;5.40;99.90;;;;;;5066007;28;20491;-72
2022/01/27 04:34:41;;;;;;;51.08;35.35;;;5.40;99.90;;;;;;5066477;28;20495;-71
2022/01/27 04:37:09;;;;;;;47.70;34.30;;;5.40;99.90;;;;;;5066042;28;20055;-71
2022/01/27 04:39:42;;;;;;;47.42;34.15;;;5.40;99.90;;;;;;5055138;28;20051;-71
2022/01/27 04:42:25;;;;;;;46.58;33.65;;;5.40;99.90;;;;;;5066108;28;20078;-71
2022/01/27 04:44:57;;;;;;;45.38;32.83;;;5.40;99.90;;;;;;5064273;28;20127;-72
2022/01/27 04:47:30;;;;;;;45.88;33.60;;;5.40;99.90;;;;;;5057315;28;20059;-71
2022/01/27 04:49:57;;;;;;;47.95;34.53;;;5.50;99.90;;;;;;5067771;28;20098;-71
2022/01/27 04:52:24;;;;;;;46.47;34.45;;;5.50;99.90;;;;;;5067176;28;20079;-72
2022/01/27 04:55:00;;;;;;;50.85;35.42;;;5.50;99.90;;;;;;5066939;28;20391;-71
2022/01/27 04:57:28;;;;;;;47.42;33.42;;;5.50;99.90;;;;;;5063400;28;20068;-72
2022/01/27 04:59:54;;;;;;;51.05;35.63;;;5.50;99.90;;;;;;5060199;28;20474;-71
2022/01/27 05:02:30;;;;;;;49.33;35.47;;;5.50;99.90;;;;;;5069923;28;20045;-71
2022/01/27 05:04:55;;;;;;;54.13;34.90;;;5.60;99.90;;;;;;5077751;28;20052;-71
2022/01/27 05:07:21;;;;;;;47.42;33.75;;;5.50;99.90;;;;;;5061129;28;20053;-71
2022/01/27 05:09:54;;;;;;;45.53;32.28;;;5.50;99.90;;;;;;5056637;28;20051;-71
2022/01/27 05:14:58;;;;;;;49.00;33.47;;;5.50;99.90;;;;;;5057419;28;20056;-72
2022/01/27 05:17:23;;;;;;;45.65;32.55;;;5.50;99.90;;;;;;5067991;28;20061;-71
2022/01/27 05:19:50;;;;;;;47.60;33.50;;;5.50;99.90;;;;;;5063779;28;20052;-71
2022/01/27 05:22:16;;;;;;;46.38;31.85;;;5.50;99.90;;;;;;5066693;28;20139;-71
2022/01/27 05:24:42;;;;;;;47.53;32.83;;;5.60;99.90;;;;;;5055679;28;20136;-71
2022/01/27 05:27:08;;;;;;;44.58;31.65;;;5.60;99.90;;;;;;5067198;28;20033;-71
2022/01/27 05:29:34;;;;;;;48.20;31.83;;;5.60;99.90;;;;;;5079008;28;20053;-71
2022/01/27 05:31:59;;;;;;;46.67;32.38;;;5.60;99.90;;;;;;5067297;28;20052;-71
2022/01/27 05:34:25;;;;;;;47.42;32.53;;;5.60;99.90;;;;;;5067771;28;20047;-71
2022/01/27 05:36:50;;;;;;;49.65;32.25;;;5.60;99.90;;;;;;5066515;28;20086;-72
2022/01/27 05:39:16;;;;;;;50.70;33.80;;;5.60;99.90;;;;;;5064624;28;20647;-71
2022/01/27 05:41:42;;;;;;;50.13;33.65;;;5.60;99.90;;;;;;5100022;28;20044;-71
2022/01/27 05:44:08;;;;;;;48.00;33.80;;;5.60;99.90;;;;;;5066105;28;20391;-71
2022/01/27 05:46:34;;;;;;;51.60;34.88;;;5.60;99.90;;;;;;5059037;28;20048;-71
2022/01/27 05:48:59;;;;;;;49.83;34.10;;;5.50;99.90;;;;;;5054810;28;20446;-71
2022/01/27 05:51:25;;;;;;;54.17;33.95;;;5.60;99.90;;;;;;5076319;28;20139;-71
2022/01/27 05:53:51;;;;;;;47.65;33.38;;;5.60;99.90;;;;;;5093237;28;20040;-71
2022/01/27 05:56:16;;;;;;;52.28;32.65;;;5.60;99.90;;;;;;5067336;28;20040;-71
2022/01/27 05:58:42;;;;;;;49.70;32.58;;;5.60;99.90;;;;;;5061172;28;20131;-71
2022/01/27 06:01:08;;;;;;;51.97;33.75;;;5.60;99.90;;;;;;5068322;28;20082;-72
2022/01/27 06:03:34;;;;;;;48.10;33.40;;;5.60;99.90;;;;;;5070173;28;20124;-71
2022/01/27 06:05:59;;;;;;;50.25;34.78;;;5.60;99.90;;;;;;5066631;28;20049;-70
2022/01/27 06:08:28;;;;;;;51.45;33.55;;;5.60;99.90;;;;;;5064146;28;20149;-71
2022/01/27 06:10:54;;;;;;;54.35;34.72;;;5.60;99.90;;;;;;5054541;28;20463;-71
2022/01/27 06:13:19;;;;;;;47.88;33.30;;;5.60;99.90;;;;;;5054010;28;20040;-71
2022/01/27 06:15:45;;;;;;;54.15;36.15;;;5.60;99.90;;;;;;5063637;28;20528;-71
2022/01/27 06:18:12;;;;;;;51.85;33.92;;;5.60;99.90;;;;;;5062122;28;20094;-71
2022/01/27 06:20:39;;;;;;;51.63;34.65;;;5.60;99.90;;;;;;5069839;28;20041;-71
2022/01/27 06:23:05;;;;;;;56.75;35.40;;;5.60;99.90;;;;;;5052541;28;20053;-71
2022/01/27 06:25:30;;;;;;;55.22;35.53;;;5.60;99.90;;;;;;5066332;28;20078;-72
2022/01/27 06:27:57;;;;;;;59.05;36.47;;;5.60;99.90;;;;;;5064585;28;20052;-71
2022/01/27 06:30:23;;;;;;;54.90;36.40;;;5.60;99.90;;;;;;5076328;28;20044;-71
2022/01/27 06:32:48;;;;;;;58.45;35.65;;;5.60;99.90;;;;;;5059802;28;20306;-71
2022/01/27 06:35:15;;;;;;;58.78;37.05;;;5.60;99.90;;;;;;5074909;28;20385;-71
2022/01/27 06:37:42;;;;;;;63.60;36.78;;;5.60;99.90;;;;;;5098965;28;20043;-71
2022/01/27 06:40:10;;;;;;;62.20;37.92;;;5.60;99.90;;;;;;5064221;28;20052;-72
2022/01/27 06:42:36;;;;;;;60.60;38.58;;;5.60;99.90;;;;;;5063706;28;20109;-71
2022/01/27 06:45:03;;;;;;;67.13;40.08;;;5.60;99.90;;;;;;5092897;28;20047;-72
2022/01/27 06:47:29;;;;;;;68.47;39.05;;;5.60;99.90;;;;;;5063096;28;20048;-72
2022/01/27 06:49:54;;;;;;;69.07;40.10;;;5.60;99.90;;;;;;5056789;28;20037;-71
2022/01/27 06:52:22;;;;;;;74.85;40.92;;;5.60;99.90;;;;;;5076401;28;20048;-71
2022/01/27 06:54:52;;;;;;;69.55;42.35;;;5.50;99.90;;;;;;5067026;28;20040;-72
2022/01/27 06:57:18;;;;;;;65.00;40.35;;;5.50;99.90;;;;;;5062719;28;20117;-71
2022/01/27 06:59:43;;;;;;;74.45;41.75;;;5.60;99.90;;;;;;5061246;28;20059;-72
2022/01/27 07:02:09;;;;;;;75.15;43.20;;;5.50;99.90;;;;;;5062205;28;20066;-72
2022/01/27 07:04:35;;;;;;;73.47;43.17;;;5.60;99.90;;;;;;5060878;28;20495;-72
2022/01/27 07:07:00;;;;;;;79.45;44.70;;;5.60;99.90;;;;;;5079982;28;20128;-71
2022/01/27 07:09:26;;;;;;;79.65;45.60;;;5.60;99.90;;;;;;5064846;28;20041;-72
2022/01/27 07:11:52;;;;;;;73.80;43.22;;;5.50;99.90;;;;;;5064920;28;20127;-72
2022/01/27 07:14:18;;;;;;;76.40;41.78;;;5.50;99.90;;;;;;5062817;28;20079;-71
2022/01/27 07:16:44;;;;;;;77.28;43.33;;;5.50;99.90;;;;;;5065405;28;20090;-72
2022/01/27 07:19:09;;;;;;;72.32;41.58;;;5.60;99.90;;;;;;5065318;28;20565;-73
2022/01/27 07:21:35;;;;;;;70.15;41.92;;;5.50;99.90;;;;;;5063697;28;20047;-71
2022/01/27 07:24:01;;;;;;;73.07;41.58;;;5.60;99.90;;;;;;5066552;28;20126;-72
2022/01/27 07:26:27;;;;;;;73.78;42.15;;;5.60;99.90;;;;;;5065528;28;20051;-72
2022/01/27 07:28:56;;;;;;;69.55;39.85;;;5.60;99.90;;;;;;5065116;28;20040;-72
2022/01/27 07:31:22;;;;;;;68.38;40.00;;;5.60;99.90;;;;;;5098409;28;20135;-72
2022/01/27 07:33:49;;;;;;;70.35;40.42;;;5.70;99.90;;;;;;5057910;28;20048;-72
2022/01/27 07:36:15;;;;;;;71.15;41.05;;;5.70;99.90;;;;;;5059724;28;20072;-72
2022/01/27 07:38:42;;;;;;;71.10;39.60;;;5.70;99.90;;;;;;5061225;28;20495;-73
2022/01/27 07:41:07;;;;;;;65.50;39.10;;;5.80;99.90;;;;;;5062673;28;20045;-72
2022/01/27 07:43:33;;;;;;;62.60;37.75;;;5.80;99.90;;;;;;5057590;28;20204;-72
2022/01/27 07:46:00;;;;;;;66.97;38.17;;;5.80;99.90;;;;;;5062915;28;20067;-72
2022/01/27 07:48:26;;;;;;;66.22;37.50;;;5.80;99.90;;;;;;5063446;28;20133;-72
2022/01/27 07:50:52;;;;;;;64.03;37.53;;;5.80;99.90;;;;;;5059610;28;20040;-72
2022/01/27 07:53:18;;;;;;;63.83;36.60;;;5.90;99.90;;;;;;5067018;28;20302;-72
2022/01/27 07:55:43;;;;;;;61.45;35.15;;;5.90;99.90;;;;;;5066150;28;20561;-72
2022/01/27 07:58:09;;;;;;;54.22;32.70;;;5.90;99.90;;;;;;5063002;28;20044;-73
2022/01/27 08:00:36;;;;;;;49.47;32.45;;;5.90;99.90;;;;;;5062935;28;20132;-72
2022/01/27 08:03:01;;;;;;;52.30;31.53;;;6.00;99.90;;;;;;5062060;28;20046;-72
2022/01/27 08:05:27;;;;;;;49.30;29.70;;;6.00;99.90;;;;;;5065356;28;20374;-73
2022/01/27 08:07:53;;;;;;;47.00;28.42;;;6.00;99.90;;;;;;5063938;28;20060;-72
2022/01/27 08:10:18;;;;;;;39.55;25.77;;;6.10;99.90;;;;;;5064813;28;20387;-72
2022/01/27 08:12:44;;;;;;;42.05;26.13;;;6.10;99.90;;;;;;5064604;28;20048;-71
2022/01/27 08:15:11;;;;;;;40.60;25.35;;;6.10;99.90;;;;;;5067446;28;20061;-71
2022/01/27 08:17:38;;;;;;;37.50;25.70;;;6.20;99.90;;;;;;5064409;28;20132;-72
2022/01/27 08:20:04;;;;;;;38.35;25.35;;;6.20;99.90;;;;;;5067437;28;20053;-71
2022/01/27 08:22:31;;;;;;;36.22;25.52;;;6.20;99.90;;;;;;5065632;28;20127;-73
2022/01/27 08:24:57;;;;;;;37.28;25.92;;;6.30;99.90;;;;;;5059250;28;20079;-73
2022/01/27 08:27:28;;;;;;;35.25;24.63;;;6.30;99.90;;;;;;5067261;28;20068;-72
2022/01/27 08:29:59;;;;;;;32.58;23.63;;;6.30;99.90;;;;;;5056275;28;20059;-72
2022/01/27 08:32:34;;;;;;;34.75;23.80;;;6.30;99.90;;;;;;5067068;28;20080;-73
2022/01/27 08:34:59;;;;;;;38.08;25.13;;;6.30;99.90;;;;;;5066640;28;20521;-72
2022/01/27 08:37:25;;;;;;;38.30;26.02;;;6.40;99.90;;;;;;5062387;28;20059;-73
2022/01/27 08:39:51;;;;;;;39.60;26.65;;;6.40;99.90;;;;;;5050888;28;20044;-73
2022/01/27 08:42:16;;;;;;;41.33;26.98;;;6.40;99.90;;;;;;5067984;28;20084;-72
2022/01/27 08:44:42;;;;;;;43.47;27.63;;;6.40;99.90;;;;;;5071908;28;20043;-72
2022/01/27 08:47:11;;;;;;;45.78;28.55;;;6.50;99.90;;;;;;5068154;28;20123;-73
2022/01/27 08:49:37;;;;;;;44.17;28.10;;;6.50;99.90;;;;;;5064463;28;20052;-72
2022/01/27 08:52:03;;;;;;;48.20;29.10;;;6.50;99.90;;;;;;5074710;28;20049;-73
2022/01/27 08:54:28;;;;;;;46.47;30.20;;;6.50;99.90;;;;;;5102377;28;20431;-73
2022/01/27 08:56:54;;;;;;;49.38;30.52;;;6.50;99.90;;;;;;5071230;28;20132;-73
2022/01/27 08:59:20;;;;;;;48.80;30.00;;;6.50;99.90;;;;;;5068490;28;20403;-73
2022/01/27 09:01:46;;;;;;;48.88;29.98;;;6.60;99.90;;;;;;5069076;28;20550;-73
2022/01/27 09:04:12;;;;;;;49.65;29.75;;;6.60;99.90;;;;;;5068947;28;20047;-73
2022/01/27 09:06:38;;;;;;;47.38;29.73;;;6.60;99.90;;;;;;5069032;28;20045;-74
2022/01/27 09:09:05;;;;;;;48.35;29.85;;;6.60;99.90;;;;;;5068918;28;20047;-73
2022/01/27 09:11:31;;;;;;;54.03;30.80;;;6.60;99.90;;;;;;5069304;28;20169;-73
2022/01/27 09:13:58;;;;;;;52.15;31.58;;;6.60;99.90;;;;;;5069328;28;20045;-73
2022/01/27 09:16:27;;;;;;;51.83;29.95;;;6.60;99.90;;;;;;5068397;28;20504;-74
2022/01/27 09:18:53;;;;;;;47.92;30.65;;;6.70;99.90;;;;;;5069575;28;20056;-74
2022/01/27 09:21:23;;;;;;;51.88;33.40;;;6.70;99.90;;;;;;5068536;28;20044;-73
2022/01/27 09:23:51;;;;;;;51.45;30.10;;;6.70;99.90;;;;;;5068748;28;20056;-73
2022/01/27 09:29:02;;;;;;;59.10;31.88;;;6.70;99.90;;;;;;5069329;28;20171;-73
2022/01/27 09:31:27;;;;;;;58.23;32.33;;;6.70;99.90;;;;;;5068655;28;20514;-73
2022/01/27 09:33:53;;;;;;;54.17;31.10;;;6.80;99.90;;;;;;5070536;28;20373;-73
2022/01/27 09:36:19;;;;;;;56.33;31.83;;;6.80;99.90;;;;;;5068232;28;20495;-73
2022/01/27 09:38:44;;;;;;;49.92;30.02;;;6.80;99.90;;;;;;5072738;28;20047;-73
2022/01/27 09:41:11;;;;;;;55.85;30.30;;;6.80;99.90;;;;;;5067588;28;20126;-74
2022/01/27 09:43:37;;;;;;;53.05;29.40;;;6.90;99.90;;;;;;5069442;28;20123;-73
2022/01/27 09:46:06;;;;;;;56.55;29.48;;;7.00;99.90;;;;;;5068565;28;20119;-77
2022/01/27 09:48:37;;;;;;;58.08;29.58;;;7.00;99.90;;;;;;5060765;28;20069;-71
2022/01/27 09:53:51;;;;;;;47.00;26.70;;;7.00;99.90;;;;;;5069915;28;20637;-70
2022/01/27 09:56:17;;;;;;;54.47;25.98;;;7.10;99.90;;;;;;5069162;28;20051;-72
2022/01/27 09:58:43;;;;;;;52.47;26.13;;;7.10;99.90;;;;;;5069234;28;20458;-72
2022/01/27 10:01:08;;;;;;;50.30;26.48;;;7.20;99.90;;;;;;5069381;28;20037;-72
2022/01/27 10:03:55;;;;;;;49.65;24.20;;;7.20;99.90;;;;;;5075532;28;20511;-71
2022/01/27 10:06:27;;;;;;;46.13;22.83;;;7.30;99.90;;;;;;5067593;28;20089;-72
2022/01/27 10:09:19;;;;;;;38.55;19.65;;;7.30;99.90;;;;;;5068644;28;20094;-71
2022/01/27 10:11:48;;;;;;;40.13;18.50;;;7.40;99.90;;;;;;5069669;28;20053;-70
2022/01/27 10:14:19;;;;;;;39.25;18.98;;;7.50;99.90;;;;;;5061505;28;20079;-72
2022/01/27 10:16:46;;;;;;;49.33;19.63;;;7.50;99.90;;;;;;5066604;28;20402;-72
2022/01/27 10:19:13;;;;;;;40.78;17.98;;;7.50;99.90;;;;;;5066799;28;20043;-72
2022/01/27 10:21:39;;;;;;;42.13;19.88;;;7.60;99.90;;;;;;5069752;28;20068;-71
2022/01/27 10:24:26;;;;;;;33.70;16.88;;;7.60;99.90;;;;;;5068122;28;20098;-72
2022/01/27 10:27:20;;;;;;;36.00;17.10;;;7.60;99.90;;;;;;5089675;28;20679;-72
2022/01/27 10:30:05;;;;;;;33.45;16.45;;;7.60;99.90;;;;;;5057599;28;20041;-71
2022/01/27 10:32:40;;;;;;;36.63;17.77;;;7.60;99.90;;;;;;5067564;28;20052;-72
2022/01/27 10:35:06;;;;;;;33.88;15.80;;;7.70;99.90;;;;;;5065882;28;20044;-71
2022/01/27 10:37:56;;;;;;;32.95;15.80;;;7.70;99.90;;;;;;5067581;28;20048;-71
2022/01/27 10:40:22;;;;;;;29.95;15.65;;;7.70;99.90;;;;;;5068447;28;20074;-72
2022/01/27 10:43:02;;;;;;;33.00;15.95;;;7.70;99.90;;;;;;5068560;28;20044;-71
2022/01/27 10:45:28;;;;;;;31.75;15.40;;;7.70;99.90;;;;;;5066016;28;20036;-72
2022/01/27 10:48:06;;;;;;;36.42;15.82;;;7.80;99.90;;;;;;5068176;28;20048;-71
2022/01/27 10:50:47;;;;;;;32.33;14.98;;;7.80;99.90;;;;;;5067546;28;20048;-71
2022/01/27 10:53:13;;;;;;;36.30;14.93;;;7.80;99.90;;;;;;5066281;28;20048;-72
2022/01/27 10:55:38;;;;;;;32.63;15.10;;;7.80;99.90;;;;;;5069167;28;20051;-72
2022/01/27 10:58:24;;;;;;;33.97;15.55;;;7.80;99.90;;;;;;5068085;28;20415;-71
2022/01/27 11:00:57;;;;;;;33.85;14.98;;;7.90;99.90;;;;;;5090206;28;20126;-74
2022/01/27 11:03:23;;;;;;;37.45;15.25;;;7.90;99.90;;;;;;5064406;28;20044;-74
2022/01/27 11:05:50;;;;;;;32.53;14.40;;;7.90;99.90;;;;;;5063293;28;20063;-72
2022/01/27 11:08:19;;;;;;;32.03;14.25;;;7.90;99.90;;;;;;5065762;28;20514;-72
2022/01/27 11:10:48;;;;;;;34.97;14.77;;;7.90;99.90;;;;;;5067737;28;20131;-72
2022/01/27 11:13:16;;;;;;;29.70;13.60;;;7.90;99.90;;;;;;5065591;28;20678;-72
2022/01/27 11:15:42;;;;;;;;;;;7.90;99.90;;;;;;5062589;28;20083;-70
2022/01/27 11:18:09;;;;;;;26.83;13.57;;;7.90;99.90;;;;;;5064592;28;19920;-70
2022/01/27 11:21:02;;;;;;;29.48;13.75;;;7.90;99.90;;;;;;5062622;28;20127;-72
2022/01/27 11:26:09;;;;;;;33.03;13.20;;;7.90;99.90;;;;;;5067743;28;20056;-74
2022/01/27 11:28:36;;;;;;;26.92;12.75;;;7.90;99.90;;;;;;5056019;28;20049;-73
2022/01/27 11:31:41;;;;;;;27.85;13.18;;;7.90;99.90;;;;;;5065692;28;20055;-71
2022/01/27 11:34:09;;;;;;;28.42;13.52;;;7.90;99.90;;;;;;5053589;28;20059;-72
2022/01/27 11:36:37;;;;;;;32.75;13.23;;;7.90;99.90;;;;;;5063563;28;20048;-71
2022/01/27 11:39:09;;;;;;;30.80;13.25;;;8.00;99.90;;;;;;5057978;28;20048;-71
2022/01/27 11:41:43;;;;;;;29.67;13.27;;;7.90;99.90;;;;;;5079975;28;20052;-73
2022/01/27 11:44:36;;;;;;;33.80;13.60;;;8.00;99.90;;;;;;5083600;28;20114;-71
2022/01/27 11:47:16;;;;;;;30.60;13.88;;;8.00;99.90;;;;;;5053734;28;20135;-70
2022/01/27 11:49:45;;;;;;;28.90;12.20;;;7.90;99.90;;;;;;5082174;28;20060;-71
2022/01/27 11:52:22;;;;;;;27.70;12.23;;;8.00;99.90;;;;;;5056633;28;20128;-70
2022/01/27 11:54:48;;;;;;;;;;;8.00;99.90;;;;;;5064980;28;20714;-70
2022/01/27 11:57:40;;;;;;;31.20;11.80;;;8.00;99.90;;;;;;5062524;28;19974;-71
2022/01/27 12:00:20;;;;;;;27.05;10.82;;;8.00;99.90;;;;;;5066658;28;20052;-71
2022/01/27 12:03:01;;;;;;;26.92;10.45;;;8.10;99.90;;;;;;5062982;28;20095;-71
2022/01/27 12:05:34;;;;;;;29.17;10.48;;;8.10;99.90;;;;;;5057170;28;20048;-71
2022/01/27 12:08:09;;;;;;;28.98;9.60;;;8.10;99.90;;;;;;5049090;28;20051;-71
2022/01/27 12:10:47;;;;;;;26.45;8.82;;;8.20;99.90;;;;;;5078255;28;20068;-73
2022/01/27 12:13:30;;;;;;;27.15;8.35;;;8.20;99.90;;;;;;5069660;28;20108;-71
2022/01/27 12:16:38;;;;;;;25.65;8.18;;;8.30;99.90;;;;;;5057606;28;20056;-71
2022/01/27 12:19:09;;;;;;;18.83;7.57;;;8.30;99.90;;;;;;5049059;28;20504;-74
2022/01/27 12:21:40;;;;;;;20.48;8.15;;;8.40;99.90;;;;;;5091045;28;20041;-74
2022/01/27 12:24:16;;;;;;;25.00;7.53;;;8.40;99.90;;;;;;5067855;28;20113;-72
2022/01/27 12:26:51;;;;;;;22.92;7.20;;;8.40;99.90;;;;;;5068412;28;20047;-69
2022/01/27 12:29:35;;;;;;;27.02;6.60;;;8.40;99.90;;;;;;5070879;28;20044;-71
2022/01/27 12:32:09;;;;;;;16.88;5.57;;;8.50;99.90;;;;;;5069564;28;20102;-71
2022/01/27 12:34:36;;;;;;;23.63;5.50;;;8.50;99.90;;;;;;5067964;28;20394;-71
2022/01/27 12:37:09;;;;;;;;;;;8.60;99.90;;;;;;5054613;28;20395;-76
2022/01/27 12:39:41;;;;;;;21.13;5.40;;;8.60;99.90;;;;;;5084513;28;19931;-72
2022/01/27 12:42:09;;;;;;;21.45;5.15;;;8.70;99.90;;;;;;5071095;28;20044;-73
2022/01/27 12:44:35;;;;;;;22.55;5.13;;;8.80;99.90;;;;;;5065257;28;20678;-73
2022/01/27 12:47:11;;;;;;;18.60;4.85;;;8.80;99.90;;;;;;5058402;28;20044;-71
2022/01/27 12:49:45;;;;;;;16.38;4.45;;;8.90;99.90;;;;;;5061873;28;20045;-74
2022/01/27 12:52:21;;;;;;;18.77;4.63;;;8.80;99.90;;;;;;5069480;28;20055;-72
2022/01/27 12:54:50;;;;;;;22.85;5.07;;;8.90;99.90;;;;;;5058067;28;20044;-72
2022/01/27 12:57:25;;;;;;;19.25;4.80;;;8.90;99.90;;;;;;5058575;28;20097;-72
2022/01/27 12:59:53;;;;;;;19.58;4.38;;;8.90;99.90;;;;;;5087863;28;20037;-72
2022/01/27 13:02:20;;;;;;;20.60;4.70;;;8.90;99.90;;;;;;5052751;28;20048;-72
2022/01/27 13:04:47;;;;;;;18.70;4.47;;;9.00;99.90;;;;;;5059849;28;20522;-72
2022/01/27 13:07:13;;;;;;;18.58;4.80;;;9.00;99.90;;;;;;5069149;28;20041;-71
2022/01/27 13:09:39;;;;;;;16.42;3.88;;;9.00;99.90;;;;;;5102512;28;20055;-71
2022/01/27 13:12:19;;;;;;;20.08;4.55;;;9.00;99.90;;;;;;5069562;28;20049;-71
2022/01/27 13:14:48;;;;;;;19.85;4.15;;;9.10;99.90;;;;;;5054594;28;20044;-74
2022/01/27 13:17:31;;;;;;;21.40;5.38;;;9.00;99.90;;;;;;5066686;28;20053;-73
2022/01/27 13:20:22;;;;;;;18.85;5.03;;;9.10;99.90;;;;;;5047998;28;20079;-73
2022/01/27 13:22:56;;;;;;;19.58;4.22;;;9.10;99.90;;;;;;5048577;28;20094;-73
2022/01/27 13:25:23;;;;;;;22.55;4.45;;;9.10;99.90;;;;;;5055605;28;20109;-74
2022/01/27 13:28:03;;;;;;;15.27;3.75;;;9.10;99.90;;;;;;5069902;28;20041;-72
2022/01/27 13:30:29;;;;;;;14.65;3.92;;;9.10;99.90;;;;;;5068780;28;20052;-73
2022/01/27 13:32:55;;;;;;;19.45;4.47;;;9.10;99.90;;;;;;5066789;28;20093;-74
2022/01/27 13:35:20;;;;;;;20.70;4.85;;;9.10;99.90;;;;;;5061621;28;20485;-74
2022/01/27 13:37:46;;;;;;;20.05;3.95;;;9.10;99.90;;;;;;5068798;28;20048;-73
2022/01/27 13:43:13;;;;;;;20.40;4.50;;;9.10;99.90;;;;;;5050223;28;20203;-73